Time;durP1;ratioP1;P1;durP2;ratioP2;P2;SDS_P1;SDS_P2;PMS_P1;PMS_P2;Temp;Humidity;BMP_temperature;BMP_pressure;BME280_temperature;BME280_humidity;BME280_pressure;Samples;Min_cycle;Max_cycle;Signal;HPM_P1;HPM_P2
2022/11/13 00:00:45;;;;;;;11.15;6.70;;;;;;;;;;5053782;28;20045;-64
2022/11/13 00:03:11;;;;;;;11.50;6.47;;;;;;;;;;5053564;28;20132;-67
2022/11/13 00:05:36;;;;;;;7.80;5.80;;;;;;;;;;5053430;28;20033;-64
2022/11/13 00:08:02;;;;;;;9.13;5.97;;;;;;;;;;5053540;28;20485;-64
2022/11/13 00:10:27;;;;;;;10.32;6.13;;;;;;;;;;5053275;28;20082;-64
2022/11/13 00:12:53;;;;;;;10.00;5.70;;;;;;;;;;5035187;28;20035;-65
2022/11/13 00:15:19;;;;;;;12.13;6.00;;;;;;;;;;5053215;28;20028;-66
2022/11/13 00:17:44;;;;;;;8.68;6.25;;;;;;;;;;5053026;28;20048;-67
2022/11/13 00:20:10;;;;;;;8.82;6.78;;;;;;;;;;5053082;28;20053;-66
2022/11/13 00:22:35;;;;;;;10.38;6.68;;;;;;;;;;5053133;28;20033;-64
2022/11/13 00:25:04;;;;;;;8.43;6.10;;;;;;;;;;5053062;28;20083;-65
2022/11/13 00:27:30;;;;;;;9.30;6.05;;;;;;;;;;5053201;28;20033;-66
2022/11/13 00:29:56;;;;;;;12.15;6.20;;;;;;;;;;5052968;28;20067;-63
2022/11/13 00:32:21;;;;;;;11.25;6.60;;;;;;;;;;5053170;28;20056;-65
2022/11/13 00:34:47;;;;;;;9.82;6.40;;;;;;;;;;5052052;28;20033;-66
2022/11/13 00:37:13;;;;;;;8.07;6.00;;;;;;;;;;5052858;28;20618;-68
2022/11/13 00:39:38;;;;;;;9.80;6.20;;;;;;;;;;5052794;28;20025;-67
2022/11/13 00:42:04;;;;;;;9.15;6.13;;;;;;;;;;5053021;28;20031;-67
2022/11/13 00:44:29;;;;;;;11.55;6.45;;;;;;;;;;5052705;28;20033;-64
2022/11/13 00:46:55;;;;;;;9.13;6.38;;;;;;;;;;5052739;28;20027;-64
2022/11/13 00:49:20;;;;;;;11.98;6.35;;;;;;;;;;5052640;28;20029;-65
2022/11/13 00:51:46;;;;;;;8.93;6.40;;;;;;;;;;5052919;28;20041;-64
2022/11/13 00:54:11;;;;;;;10.77;6.05;;;;;;;;;;5052498;28;20645;-64
2022/11/13 00:56:36;;;;;;;10.30;6.13;;;;;;;;;;5052515;28;20079;-65
2022/11/13 00:59:02;;;;;;;8.30;5.85;;;;;;;;;;5052518;28;20072;-67
2022/11/13 01:01:27;;;;;;;14.27;6.03;;;;;;;;;;5052352;28;20033;-65
2022/11/13 01:03:53;;;;;;;8.80;6.65;;;;;;;;;;5052498;28;20021;-66
2022/11/13 01:06:22;;;;;;;8.65;6.00;;;;;;;;;;5052225;28;20183;-65
2022/11/13 01:08:48;;;;;;;8.85;5.88;;;;;;;;;;5052301;28;20396;-66
2022/11/13 01:11:20;;;;;;;8.77;5.93;;;;;;;;;;5052445;28;20029;-65
2022/11/13 01:13:48;;;;;;;8.63;6.32;;;;;;;;;;5052194;28;20025;-66
2022/11/13 01:16:16;;;;;;;7.30;5.90;;;;;;;;;;5052044;28;20024;-65
2022/11/13 01:18:42;;;;;;;11.23;6.30;;;;;;;;;;5051948;28;20036;-66
2022/11/13 01:21:12;;;;;;;8.35;5.95;;;;;;;;;;5052029;28;20120;-65
2022/11/13 01:23:38;;;;;;;10.50;6.38;;;;;;;;;;5051980;28;20025;-65
2022/11/13 01:26:16;;;;;;;8.60;6.60;;;;;;;;;;5052300;28;20048;-64
2022/11/13 01:28:43;;;;;;;9.90;5.95;;;;;;;;;;5051911;28;20025;-66
2022/11/13 01:31:11;;;;;;;9.52;5.95;;;;;;;;;;5051779;28;20060;-65
2022/11/13 01:33:37;;;;;;;9.70;6.30;;;;;;;;;;5051642;28;20035;-65
2022/11/13 01:36:12;;;;;;;11.52;5.95;;;;;;;;;;5052147;28;20111;-64
2022/11/13 01:38:37;;;;;;;8.95;6.18;;;;;;;;;;5051587;28;20510;-65
2022/11/13 01:41:04;;;;;;;8.95;5.68;;;;;;;;;;5051776;28;20029;-65
2022/11/13 01:43:33;;;;;;;9.85;6.25;;;;;;;;;;5051501;28;20104;-65
2022/11/13 01:45:58;;;;;;;10.30;6.32;;;;;;;;;;5051324;28;20036;-65
2022/11/13 01:48:37;;;;;;;8.48;6.40;;;;;;;;;;5051681;28;20101;-64
2022/11/13 01:51:15;;;;;;;10.13;6.10;;;;;;;;;;5051828;28;20025;-66
2022/11/13 01:53:44;;;;;;;8.70;6.32;;;;;;;;;;5051800;28;20025;-66
2022/11/13 01:56:10;;;;;;;9.05;6.05;;;;;;;;;;5051682;28;20060;-66
2022/11/13 01:58:36;;;;;;;9.45;6.00;;;;;;;;;;5051441;28;20078;-64
2022/11/13 02:01:02;;;;;;;8.23;6.18;;;;;;;;;;5051239;28;20033;-65
2022/11/13 02:03:27;;;;;;;11.65;6.32;;;;;;;;;;5051392;28;20071;-65
2022/11/13 02:05:53;;;;;;;9.23;5.80;;;;;;;;;;5051181;28;20056;-67
2022/11/13 02:08:19;;;;;;;7.85;5.90;;;;;;;;;;5051331;28;20017;-65
2022/11/13 02:10:46;;;;;;;7.65;6.13;;;;;;;;;;5051726;28;20381;-64
2022/11/13 02:13:12;;;;;;;10.07;6.00;;;;;;;;;;5052724;28;20044;-65
2022/11/13 02:15:39;;;;;;;8.95;6.05;;;;;;;;;;5053031;28;20112;-66
2022/11/13 02:18:05;;;;;;;8.05;5.80;;;;;;;;;;5052538;28;20029;-66
2022/11/13 02:20:48;;;;;;;7.28;5.78;;;;;;;;;;5052505;28;20021;-66
2022/11/13 02:23:24;;;;;;;13.10;6.45;;;;;;;;;;5052607;28;20049;-63
2022/11/13 02:25:51;;;;;;;8.40;5.93;;;;;;;;;;5048678;28;20059;-64
2022/11/13 02:28:17;;;;;;;7.13;5.80;;;;;;;;;;5048360;28;20037;-65
2022/11/13 02:30:43;;;;;;;8.55;6.03;;;;;;;;;;5052472;28;20033;-65
2022/11/13 02:33:26;;;;;;;9.00;6.32;;;;;;;;;;5052436;28;20028;-63
2022/11/13 02:35:51;;;;;;;8.13;6.00;;;;;;;;;;5052348;28;20025;-65
2022/11/13 02:38:17;;;;;;;9.57;5.85;;;;;;;;;;5052264;28;20111;-66
2022/11/13 02:40:42;;;;;;;8.25;5.97;;;;;;;;;;5050254;28;20025;-66
2022/11/13 02:43:08;;;;;;;7.47;6.00;;;;;;;;;;5032840;28;20017;-66
2022/11/13 02:45:34;;;;;;;10.80;6.55;;;;;;;;;;5051229;28;20074;-65
2022/11/13 02:48:00;;;;;;;8.30;5.95;;;;;;;;;;5046978;28;20115;-66
2022/11/13 02:50:26;;;;;;;9.73;6.40;;;;;;;;;;5048591;28;20044;-65
2022/11/13 02:52:51;;;;;;;9.48;6.22;;;;;;;;;;5049547;28;20021;-65
2022/11/13 02:55:17;;;;;;;8.23;6.07;;;;;;;;;;5047985;28;20044;-65
2022/11/13 02:57:42;;;;;;;7.18;6.10;;;;;;;;;;5053361;28;20087;-65
2022/11/13 03:00:08;;;;;;;8.82;5.78;;;;;;;;;;5052439;28;20017;-65
2022/11/13 03:02:34;;;;;;;7.75;5.53;;;;;;;;;;5053737;28;20029;-64
2022/11/13 03:04:59;;;;;;;8.35;5.95;;;;;;;;;;5056282;28;20028;-65
2022/11/13 03:07:25;;;;;;;8.82;5.25;;;;;;;;;;5056169;28;20028;-64
2022/11/13 03:09:50;;;;;;;7.53;5.78;;;;;;;;;;5056379;28;20111;-65
2022/11/13 03:12:16;;;;;;;8.18;5.38;;;;;;;;;;5056134;28;20392;-64
2022/11/13 03:14:41;;;;;;;9.63;6.03;;;;;;;;;;5054983;28;20025;-65
2022/11/13 03:17:07;;;;;;;6.68;5.90;;;;;;;;;;5056277;28;20414;-65
2022/11/13 03:19:33;;;;;;;7.72;5.85;;;;;;;;;;5056078;28;20049;-65
2022/11/13 03:21:58;;;;;;;10.73;6.13;;;;;;;;;;5056229;28;20092;-65
2022/11/13 03:24:24;;;;;;;8.75;5.80;;;;;;;;;;5055079;28;20045;-64
2022/11/13 03:26:49;;;;;;;10.38;5.88;;;;;;;;;;5055852;28;20091;-65
2022/11/13 03:29:15;;;;;;;6.43;5.53;;;;;;;;;;5056088;28;20112;-64
2022/11/13 03:31:40;;;;;;;7.78;6.05;;;;;;;;;;5055806;28;20473;-65
2022/11/13 03:34:06;;;;;;;10.02;5.97;;;;;;;;;;5056071;28;20083;-66
2022/11/13 03:36:31;;;;;;;10.30;6.13;;;;;;;;;;5055690;28;20025;-64
2022/11/13 03:38:57;;;;;;;8.18;5.90;;;;;;;;;;5055588;28;20036;-64
2022/11/13 03:41:23;;;;;;;8.07;6.07;;;;;;;;;;5055699;28;20029;-64
2022/11/13 03:43:49;;;;;;;9.15;6.20;;;;;;;;;;5055576;28;20472;-64
2022/11/13 03:46:14;;;;;;;10.50;6.05;;;;;;;;;;5037646;28;20094;-64
2022/11/13 03:48:40;;;;;;;10.90;6.18;;;;;;;;;;5055475;28;20029;-65
2022/11/13 03:51:06;;;;;;;8.95;5.90;;;;;;;;;;5055707;28;20031;-65
2022/11/13 03:53:31;;;;;;;8.05;5.80;;;;;;;;;;5055337;28;20025;-64
2022/11/13 03:55:57;;;;;;;8.63;6.20;;;;;;;;;;5055595;28;20033;-64
2022/11/13 03:58:22;;;;;;;6.43;5.55;;;;;;;;;;5055273;28;20112;-65
2022/11/13 04:00:49;;;;;;;9.25;6.28;;;;;;;;;;5055543;28;20028;-65
2022/11/13 04:03:15;;;;;;;9.38;6.15;;;;;;;;;;5055466;28;20025;-64
2022/11/13 04:05:41;;;;;;;9.98;6.38;;;;;;;;;;5055165;28;20434;-65
2022/11/13 04:08:07;;;;;;;9.23;5.75;;;;;;;;;;5055080;28;20029;-64
2022/11/13 04:10:33;;;;;;;8.23;6.22;;;;;;;;;;5055097;28;20107;-64
2022/11/13 04:12:58;;;;;;;7.85;6.10;;;;;;;;;;5055304;28;20025;-64
2022/11/13 04:15:24;;;;;;;6.93;5.82;;;;;;;;;;5054919;28;20024;-65
2022/11/13 04:17:49;;;;;;;8.32;5.40;;;;;;;;;;5054861;28;20029;-65
2022/11/13 04:20:16;;;;;;;8.98;6.22;;;;;;;;;;5055213;28;20086;-66
2022/11/13 04:22:41;;;;;;;7.88;5.78;;;;;;;;;;5054816;28;20021;-65
2022/11/13 04:25:07;;;;;;;8.10;6.00;;;;;;;;;;5054641;28;20052;-65
2022/11/13 04:27:34;;;;;;;7.57;5.90;;;;;;;;;;5055059;28;20037;-65
2022/11/13 04:29:59;;;;;;;9.40;6.30;;;;;;;;;;5054727;28;20114;-65
2022/11/13 04:32:25;;;;;;;7.35;5.90;;;;;;;;;;5054846;28;20059;-65
2022/11/13 04:34:50;;;;;;;9.15;6.25;;;;;;;;;;5054525;28;20120;-64
2022/11/13 04:37:16;;;;;;;9.30;5.43;;;;;;;;;;5054754;28;20029;-64
2022/11/13 04:39:41;;;;;;;8.70;6.03;;;;;;;;;;5054484;28;20051;-65
2022/11/13 04:44:53;;;;;;;6.32;5.70;;;;;;;;;;5054876;28;20087;-65
2022/11/13 04:47:18;;;;;;;8.88;5.85;;;;;;;;;;5054671;28;20033;-64
2022/11/13 04:49:43;;;;;;;7.38;6.50;;;;;;;;;;5054435;28;20032;-64
2022/11/13 04:52:09;;;;;;;7.38;6.00;;;;;;;;;;5054323;28;20108;-64
2022/11/13 04:54:34;;;;;;;7.43;5.63;;;;;;;;;;5054293;28;20029;-65
2022/11/13 04:57:00;;;;;;;10.32;5.88;;;;;;;;;;5054223;28;20513;-65
2022/11/13 04:59:25;;;;;;;8.77;6.00;;;;;;;;;;5054469;28;20055;-64
2022/11/13 05:01:51;;;;;;;6.90;6.03;;;;;;;;;;5054124;28;20389;-65
2022/11/13 05:04:16;;;;;;;6.60;6.00;;;;;;;;;;5054148;28;20071;-65
2022/11/13 05:06:42;;;;;;;8.13;6.35;;;;;;;;;;5053959;28;20022;-65
2022/11/13 05:09:09;;;;;;;8.45;6.00;;;;;;;;;;5054080;28;20039;-64
2022/11/13 05:11:35;;;;;;;7.72;5.90;;;;;;;;;;5053966;28;20056;-63
2022/11/13 05:14:00;;;;;;;8.27;5.88;;;;;;;;;;5054160;28;20067;-64
2022/11/13 05:16:26;;;;;;;8.10;5.80;;;;;;;;;;5053885;28;20032;-65
2022/11/13 05:18:51;;;;;;;7.78;5.65;;;;;;;;;;5053782;28;20029;-65
2022/11/13 05:21:17;;;;;;;10.63;5.78;;;;;;;;;;5053476;28;20036;-65
2022/11/13 05:23:43;;;;;;;6.80;5.63;;;;;;;;;;5053515;28;20491;-65
2022/11/13 05:26:11;;;;;;;6.97;5.75;;;;;;;;;;5054003;28;20040;-64
2022/11/13 05:28:37;;;;;;;8.02;5.95;;;;;;;;;;5053575;28;20472;-65
2022/11/13 05:31:09;;;;;;;7.70;5.78;;;;;;;;;;5053632;28;20029;-65
2022/11/13 05:33:36;;;;;;;7.75;5.57;;;;;;;;;;5053553;28;20104;-64
2022/11/13 05:36:04;;;;;;;7.43;5.70;;;;;;;;;;5053741;28;20386;-65
2022/11/13 05:38:29;;;;;;;8.43;5.93;;;;;;;;;;5053594;28;20082;-64
2022/11/13 05:41:04;;;;;;;6.28;5.50;;;;;;;;;;5053401;28;20353;-65
2022/11/13 05:43:29;;;;;;;6.78;5.40;;;;;;;;;;5053307;28;20411;-64
2022/11/13 05:46:03;;;;;;;8.52;5.38;;;;;;;;;;5053497;28;20029;-65
2022/11/13 05:48:29;;;;;;;6.80;5.75;;;;;;;;;;5053246;28;20025;-65
2022/11/13 05:51:03;;;;;;;8.10;5.68;;;;;;;;;;5053441;28;20464;-64
2022/11/13 05:53:29;;;;;;;6.32;5.68;;;;;;;;;;5053466;28;20150;-64
2022/11/13 05:56:17;;;;;;;8.27;5.72;;;;;;;;;;5053398;28;20464;-65
2022/11/13 05:58:44;;;;;;;6.97;5.63;;;;;;;;;;5053277;28;20064;-65
2022/11/13 06:01:12;;;;;;;6.75;5.32;;;;;;;;;;5052966;28;20476;-66
2022/11/13 06:03:38;;;;;;;6.60;5.40;;;;;;;;;;5052910;28;20033;-65
2022/11/13 06:06:09;;;;;;;7.18;5.55;;;;;;;;;;5053162;28;20029;-65
2022/11/13 06:08:35;;;;;;;6.85;5.65;;;;;;;;;;5053093;28;20384;-65
2022/11/13 06:11:04;;;;;;;6.95;5.72;;;;;;;;;;5052800;28;20029;-65
2022/11/13 06:13:30;;;;;;;7.80;5.70;;;;;;;;;;5053003;28;20108;-65
2022/11/13 06:16:07;;;;;;;7.18;5.93;;;;;;;;;;5052752;28;20489;-64
2022/11/13 06:18:33;;;;;;;7.13;5.72;;;;;;;;;;5052572;28;20469;-65
2022/11/13 06:21:06;;;;;;;6.78;5.35;;;;;;;;;;5052893;28;20503;-64
2022/11/13 06:23:34;;;;;;;9.20;5.85;;;;;;;;;;5052705;28;20040;-65
2022/11/13 06:26:02;;;;;;;8.77;5.70;;;;;;;;;;5052578;28;20021;-65
2022/11/13 06:28:28;;;;;;;6.10;5.40;;;;;;;;;;5052816;28;20071;-64
2022/11/13 06:30:53;;;;;;;9.70;5.35;;;;;;;;;;5052374;28;20428;-65
2022/11/13 06:33:19;;;;;;;7.53;5.60;;;;;;;;;;5052350;28;20436;-65
2022/11/13 06:35:44;;;;;;;7.20;5.60;;;;;;;;;;5052503;28;20132;-65
2022/11/13 06:38:10;;;;;;;10.15;5.78;;;;;;;;;;5052530;28;20032;-65
2022/11/13 06:40:37;;;;;;;7.22;5.43;;;;;;;;;;5052463;28;20032;-65
2022/11/13 06:43:03;;;;;;;9.00;5.10;;;;;;;;;;5052385;28;20044;-65
2022/11/13 06:45:28;;;;;;;6.85;5.60;;;;;;;;;;5052385;28;20488;-65
2022/11/13 06:47:54;;;;;;;5.88;5.07;;;;;;;;;;5052303;28;20067;-65
2022/11/13 06:50:20;;;;;;;6.97;5.25;;;;;;;;;;5052326;28;20047;-65
2022/11/13 06:52:45;;;;;;;7.07;5.40;;;;;;;;;;5017969;28;20389;-66
2022/11/13 06:55:11;;;;;;;7.13;5.25;;;;;;;;;;5052288;28;20025;-66
2022/11/13 06:57:37;;;;;;;6.47;5.15;;;;;;;;;;5034302;28;20388;-65
2022/11/13 07:00:03;;;;;;;6.18;5.40;;;;;;;;;;5052290;28;20021;-65
2022/11/13 07:02:29;;;;;;;6.45;5.22;;;;;;;;;;5052223;28;20048;-65
2022/11/13 07:04:54;;;;;;;8.00;5.85;;;;;;;;;;5034347;28;20057;-65
2022/11/13 07:07:20;;;;;;;5.75;5.15;;;;;;;;;;5052181;28;20029;-65
2022/11/13 07:09:45;;;;;;;6.93;5.32;;;;;;;;;;5052204;28;20017;-66
2022/11/13 07:12:11;;;;;;;6.22;5.40;;;;;;;;;;5052036;28;20039;-65
2022/11/13 07:14:36;;;;;;;6.00;5.20;;;;;;;;;;5052130;28;20021;-66
2022/11/13 07:17:03;;;;;;;5.80;4.90;;;;;;;;;;5052052;28;20017;-65
2022/11/13 07:19:29;;;;;;;6.60;5.13;;;;;;;;;;5051987;28;20108;-64
2022/11/13 07:21:54;;;;;;;7.40;5.55;;;;;;;;;;5052002;28;20120;-65
2022/11/13 07:24:20;;;;;;;6.35;5.20;;;;;;;;;;5051742;28;20045;-65
2022/11/13 07:26:45;;;;;;;6.30;5.20;;;;;;;;;;5051949;28;20025;-65
2022/11/13 07:29:11;;;;;;;6.63;5.47;;;;;;;;;;5051944;28;20021;-66
2022/11/13 07:31:36;;;;;;;8.80;5.10;;;;;;;;;;5052118;28;20393;-65
2022/11/13 07:34:02;;;;;;;6.25;5.47;;;;;;;;;;5051798;28;20083;-66
2022/11/13 07:36:27;;;;;;;6.10;5.30;;;;;;;;;;5051830;28;20108;-65
2022/11/13 07:38:53;;;;;;;6.03;5.40;;;;;;;;;;5051664;28;20065;-64
2022/11/13 07:41:19;;;;;;;5.97;5.13;;;;;;;;;;5051991;28;20036;-65
2022/11/13 07:43:44;;;;;;;6.85;5.28;;;;;;;;;;5053890;28;20032;-66
2022/11/13 07:46:10;;;;;;;5.65;4.97;;;;;;;;;;5055550;28;20025;-65
2022/11/13 07:48:35;;;;;;;5.32;4.82;;;;;;;;;;5055464;28;20064;-65
2022/11/13 07:51:01;;;;;;;6.10;5.45;;;;;;;;;;5055453;28;20040;-66
2022/11/13 07:53:27;;;;;;;5.63;5.00;;;;;;;;;;5037645;28;20025;-65
2022/11/13 07:55:52;;;;;;;6.05;5.45;;;;;;;;;;5037905;28;20029;-65
2022/11/13 07:58:18;;;;;;;5.25;4.75;;;;;;;;;;5055234;28;20488;-65
2022/11/13 08:00:43;;;;;;;6.15;5.40;;;;;;;;;;5055539;28;20028;-66
2022/11/13 08:03:13;;;;;;;6.72;5.13;;;;;;;;;;5055537;28;20028;-66
2022/11/13 08:05:39;;;;;;;5.43;4.90;;;;;;;;;;5055135;28;20029;-66
2022/11/13 08:08:05;;;;;;;5.72;4.90;;;;;;;;;;5055321;28;20029;-68
2022/11/13 08:10:31;;;;;;;5.70;4.93;;;;;;;;;;5054736;28;20048;-66
2022/11/13 08:13:04;;;;;;;6.45;5.30;;;;;;;;;;5054994;28;20504;-65
2022/11/13 08:15:30;;;;;;;5.13;4.38;;;;;;;;;;5054847;28;20386;-66
2022/11/13 08:17:57;;;;;;;5.28;4.78;;;;;;;;;;5054746;28;20021;-67
2022/11/13 08:20:24;;;;;;;5.75;4.93;;;;;;;;;;5054743;28;20493;-65
2022/11/13 08:22:50;;;;;;;6.88;4.97;;;;;;;;;;5036824;28;20109;-66
2022/11/13 08:25:16;;;;;;;6.05;4.85;;;;;;;;;;5054558;28;20507;-67
2022/11/13 08:27:42;;;;;;;6.30;5.00;;;;;;;;;;5036810;28;20595;-67
2022/11/13 08:30:08;;;;;;;5.35;4.80;;;;;;;;;;5054878;28;20086;-66
2022/11/13 08:32:34;;;;;;;6.50;5.28;;;;;;;;;;5054608;28;20021;-66
2022/11/13 08:34:59;;;;;;;6.40;4.90;;;;;;;;;;5054590;28;20036;-66
2022/11/13 08:37:25;;;;;;;5.15;4.63;;;;;;;;;;5054351;28;20033;-66
2022/11/13 08:39:50;;;;;;;6.38;5.20;;;;;;;;;;5054531;28;20035;-65
2022/11/13 08:42:16;;;;;;;6.30;5.00;;;;;;;;;;5054408;28;20021;-67
2022/11/13 08:44:41;;;;;;;6.32;5.47;;;;;;;;;;5054333;28;20029;-67
2022/11/13 08:47:07;;;;;;;5.57;4.97;;;;;;;;;;5054275;28;20445;-66
2022/11/13 08:49:33;;;;;;;5.40;4.85;;;;;;;;;;5053756;28;20033;-67
2022/11/13 08:51:58;;;;;;;7.85;5.57;;;;;;;;;;5054178;28;20025;-66
2022/11/13 08:54:24;;;;;;;6.28;5.10;;;;;;;;;;5053163;28;20069;-66
2022/11/13 08:56:50;;;;;;;6.78;5.40;;;;;;;;;;5054186;28;20028;-67
2022/11/13 08:59:15;;;;;;;5.57;5.07;;;;;;;;;;5054030;28;20048;-67
2022/11/13 09:01:41;;;;;;;6.03;4.78;;;;;;;;;;5054089;28;20029;-66
2022/11/13 09:04:07;;;;;;;5.85;4.85;;;;;;;;;;5054065;28;20066;-68
2022/11/13 09:06:33;;;;;;;7.20;5.28;;;;;;;;;;5053983;28;20110;-68
2022/11/13 09:08:58;;;;;;;6.88;5.35;;;;;;;;;;5054094;28;20032;-68
2022/11/13 09:11:26;;;;;;;5.85;5.25;;;;;;;;;;5036154;28;20488;-67
2022/11/13 09:13:53;;;;;;;5.72;5.07;;;;;;;;;;5053877;28;20052;-67
2022/11/13 09:16:19;;;;;;;6.57;4.90;;;;;;;;;;5053849;28;20021;-67
2022/11/13 09:18:50;;;;;;;8.25;5.22;;;;;;;;;;5053629;28;20056;-67
2022/11/13 09:21:15;;;;;;;;;;;;;;;;;;5053638;28;20044;-68
2022/11/13 09:23:42;;;;;;;6.32;4.70;;;;;;;;;;5053383;28;19917;-67
2022/11/13 09:26:08;;;;;;;5.15;4.65;;;;;;;;;;5053734;28;20040;-67
2022/11/13 09:28:34;;;;;;;5.97;4.85;;;;;;;;;;5053641;28;20108;-68
2022/11/13 09:31:03;;;;;;;6.45;4.90;;;;;;;;;;5053555;28;20021;-68
2022/11/13 09:33:29;;;;;;;6.00;5.10;;;;;;;;;;5053560;28;20094;-66
2022/11/13 09:35:54;;;;;;;6.32;5.00;;;;;;;;;;5053463;28;20020;-67
2022/11/13 09:38:20;;;;;;;5.40;4.90;;;;;;;;;;5053358;28;20033;-66
2022/11/13 09:40:48;;;;;;;5.47;4.72;;;;;;;;;;5053434;28;20044;-66
2022/11/13 09:43:24;;;;;;;5.10;4.60;;;;;;;;;;5053297;28;20108;-66
2022/11/13 09:45:55;;;;;;;5.68;4.78;;;;;;;;;;5053657;28;20025;-66
2022/11/13 09:48:28;;;;;;;5.65;4.90;;;;;;;;;;5053518;28;20369;-66
2022/11/13 09:50:55;;;;;;;6.72;5.00;;;;;;;;;;5053297;28;20053;-67
2022/11/13 09:53:21;;;;;;;5.20;4.70;;;;;;;;;;5053092;28;20143;-67
2022/11/13 09:56:17;;;;;;;5.72;4.72;;;;;;;;;;5035331;28;20054;-67
2022/11/13 09:58:54;;;;;;;5.95;4.65;;;;;;;;;;5053052;28;20571;-68
2022/11/13 10:01:45;;;;;;;6.10;4.93;;;;;;;;;;5035185;28;20025;-67
2022/11/13 10:04:14;;;;;;;5.18;4.60;;;;;;;;;;5053050;28;20060;-66
2022/11/13 10:06:50;;;;;;;6.95;4.88;;;;;;;;;;5052740;28;20503;-67
2022/11/13 10:09:19;;;;;;;5.25;4.45;;;;;;;;;;5053196;28;20362;-67
2022/11/13 10:11:51;;;;;;;5.30;4.65;;;;;;;;;;5053063;28;20033;-67
2022/11/13 10:14:34;;;;;;;5.32;4.78;;;;;;;;;;5052883;28;20017;-68
2022/11/13 10:17:27;;;;;;;6.05;4.80;;;;;;;;;;5052803;28;20029;-68
2022/11/13 10:20:04;;;;;;;6.35;5.00;;;;;;;;;;5052716;28;20025;-67
2022/11/13 10:22:35;;;;;;;5.45;4.82;;;;;;;;;;5052683;28;20060;-66
2022/11/13 10:25:13;;;;;;;5.00;4.50;;;;;;;;;;5052335;28;20053;-68
2022/11/13 10:27:39;;;;;;;6.32;4.57;;;;;;;;;;5052579;28;20484;-66
2022/11/13 10:30:12;;;;;;;6.82;4.78;;;;;;;;;;5034890;28;20029;-66
2022/11/13 10:32:38;;;;;;;5.68;4.60;;;;;;;;;;5052581;28;20039;-66
2022/11/13 10:35:03;;;;;;;5.05;4.53;;;;;;;;;;5052534;28;20099;-67
2022/11/13 10:37:56;;;;;;;5.60;4.75;;;;;;;;;;5052632;28;20025;-67
2022/11/13 10:40:27;;;;;;;6.25;5.00;;;;;;;;;;5052520;28;20025;-66
2022/11/13 10:42:53;;;;;;;7.13;5.28;;;;;;;;;;5052512;28;20033;-66
2022/11/13 10:45:21;;;;;;;5.25;4.75;;;;;;;;;;5052432;28;20024;-68
2022/11/13 10:47:50;;;;;;;6.57;4.95;;;;;;;;;;5052544;28;20047;-66
2022/11/13 10:50:28;;;;;;;5.10;4.60;;;;;;;;;;5052372;28;20017;-66
2022/11/13 10:52:55;;;;;;;5.28;4.78;;;;;;;;;;5052327;28;20032;-66
2022/11/13 10:55:23;;;;;;;5.22;4.72;;;;;;;;;;5052298;28;20047;-66
2022/11/13 10:58:00;;;;;;;6.03;5.20;;;;;;;;;;5052233;28;20171;-66
2022/11/13 11:00:25;;;;;;;5.82;4.90;;;;;;;;;;5052204;28;20029;-67
2022/11/13 11:02:51;;;;;;;5.22;4.68;;;;;;;;;;5052478;28;20104;-66
2022/11/13 11:05:23;;;;;;;5.85;4.45;;;;;;;;;;5052193;28;20522;-66
2022/11/13 11:07:49;;;;;;;5.75;4.80;;;;;;;;;;5052221;28;20025;-66
2022/11/13 11:10:35;;;;;;;5.18;4.28;;;;;;;;;;5052157;28;20077;-66
2022/11/13 11:13:08;;;;;;;5.25;4.60;;;;;;;;;;5052472;28;20029;-66
2022/11/13 11:15:55;;;;;;;5.00;4.47;;;;;;;;;;5052152;28;20017;-66
2022/11/13 11:18:33;;;;;;;4.88;4.38;;;;;;;;;;5053492;28;20036;-67
2022/11/13 11:21:04;;;;;;;4.80;4.30;;;;;;;;;;5056080;28;20028;-66
2022/11/13 11:23:43;;;;;;;6.28;4.70;;;;;;;;;;5038113;28;20025;-70
2022/11/13 11:26:18;;;;;;;5.80;4.50;;;;;;;;;;5055720;28;20108;-66
2022/11/13 11:29:09;;;;;;;4.95;4.47;;;;;;;;;;5055698;28;20082;-69
2022/11/13 11:31:47;;;;;;;5.78;4.80;;;;;;;;;;5055784;28;20025;-67
2022/11/13 11:34:30;;;;;;;4.95;4.45;;;;;;;;;;5055914;28;20029;-67
2022/11/13 11:37:04;;;;;;;5.47;4.70;;;;;;;;;;5055772;28;20099;-68
2022/11/13 11:39:40;;;;;;;4.88;4.47;;;;;;;;;;5055684;28;20024;-68
2022/11/13 11:42:27;;;;;;;5.50;4.30;;;;;;;;;;5055702;28;20025;-67
2022/11/13 11:45:08;;;;;;;4.90;4.22;;;;;;;;;;5055868;28;20394;-66
2022/11/13 11:47:33;;;;;;;6.05;4.85;;;;;;;;;;5054777;28;20075;-68
2022/11/13 11:50:00;;;;;;;4.93;4.43;;;;;;;;;;5053126;28;20477;-68
2022/11/13 11:52:55;;;;;;;5.47;4.28;;;;;;;;;;5053360;28;20025;-68
2022/11/13 11:55:42;;;;;;;5.97;4.57;;;;;;;;;;5053694;28;20432;-68
2022/11/13 11:58:26;;;;;;;5.35;4.68;;;;;;;;;;5053374;28;20337;-69
2022/11/13 12:01:02;;;;;;;6.05;4.50;;;;;;;;;;5051229;28;20035;-66
2022/11/13 12:04:06;;;;;;;5.57;4.80;;;;;;;;;;5052329;28;20049;-70
2022/11/13 12:07:10;;;;;;;5.22;4.32;;;;;;;;;;5050317;28;20382;-70
2022/11/13 12:09:46;;;;;;;5.22;4.53;;;;;;;;;;5049837;28;20060;-71
2022/11/13 12:12:53;;;;;;;6.70;4.60;;;;;;;;;;5052877;28;20021;-71
2022/11/13 12:15:30;;;;;;;5.80;4.97;;;;;;;;;;5039657;28;20484;-70
2022/11/13 12:18:28;;;;;;;6.55;5.00;;;;;;;;;;5053253;28;20021;-70
2022/11/13 12:21:21;;;;;;;5.50;4.50;;;;;;;;;;5044734;28;20037;-71
2022/11/13 12:24:41;;;;;;;5.05;4.30;;;;;;;;;;5052538;28;20032;-69
2022/11/13 12:27:09;;;;;;;5.00;4.50;;;;;;;;;;5011756;28;20045;-72
2022/11/13 12:29:43;;;;;;;4.97;4.47;;;;;;;;;;5044242;28;20116;-68
2022/11/13 12:32:18;;;;;;;4.80;4.35;;;;;;;;;;5053764;28;20028;-70
2022/11/13 12:34:54;;;;;;;5.70;4.88;;;;;;;;;;5054682;28;20024;-69
2022/11/13 12:37:29;;;;;;;4.88;4.38;;;;;;;;;;5054831;28;20021;-69
2022/11/13 12:39:59;;;;;;;6.22;4.40;;;;;;;;;;5055224;28;20112;-68
2022/11/13 12:42:42;;;;;;;6.60;4.80;;;;;;;;;;5054428;28;20025;-67
2022/11/13 12:45:39;;;;;;;5.30;4.70;;;;;;;;;;5054802;28;20053;-68
2022/11/13 12:48:17;;;;;;;6.50;4.72;;;;;;;;;;5054312;28;20412;-68
2022/11/13 12:50:43;;;;;;;5.47;4.97;;;;;;;;;;5054690;28;20041;-67
2022/11/13 12:53:11;;;;;;;13.27;4.70;;;;;;;;;;5054368;28;20539;-66
2022/11/13 12:55:39;;;;;;;5.78;4.80;;;;;;;;;;5054214;28;20072;-66
2022/11/13 12:58:10;;;;;;;5.25;4.75;;;;;;;;;;5036403;28;20032;-67
2022/11/13 13:00:39;;;;;;;7.88;4.72;;;;;;;;;;5054132;28;20035;-67
2022/11/13 13:03:33;;;;;;;5.00;4.47;;;;;;;;;;5053299;28;20021;-70
2022/11/13 13:06:24;;;;;;;5.15;4.40;;;;;;;;;;5051400;28;20024;-66
2022/11/13 13:09:02;;;;;;;5.15;4.65;;;;;;;;;;5054154;28;20446;-66
2022/11/13 13:11:52;;;;;;;5.68;4.63;;;;;;;;;;5052224;28;20031;-67
2022/11/13 13:14:36;;;;;;;7.00;5.03;;;;;;;;;;5052474;28;20037;-68
2022/11/13 13:17:13;;;;;;;6.38;4.85;;;;;;;;;;5053895;28;20032;-67
2022/11/13 13:19:39;;;;;;;5.85;4.88;;;;;;;;;;5053842;28;20032;-67
2022/11/13 13:22:10;;;;;;;5.75;4.90;;;;;;;;;;5053873;28;20527;-66
2022/11/13 13:24:38;;;;;;;6.20;4.80;;;;;;;;;;5053534;28;20120;-67
2022/11/13 13:27:26;;;;;;;5.68;4.63;;;;;;;;;;5054017;28;20033;-66
2022/11/13 13:29:52;;;;;;;5.22;4.55;;;;;;;;;;5053772;28;20044;-66
2022/11/13 13:32:37;;;;;;;5.30;4.60;;;;;;;;;;5053593;28;20037;-66
2022/11/13 13:35:29;;;;;;;5.22;4.72;;;;;;;;;;5053601;28;20056;-67
2022/11/13 13:38:12;;;;;;;5.50;4.43;;;;;;;;;;5046839;28;20547;-66
2022/11/13 13:40:59;;;;;;;6.15;4.50;;;;;;;;;;5035158;28;20044;-66
2022/11/13 13:44:02;;;;;;;5.95;4.70;;;;;;;;;;5053406;28;20033;-67
2022/11/13 13:46:33;;;;;;;5.60;4.50;;;;;;;;;;5053335;28;20481;-66
2022/11/13 13:49:13;;;;;;;6.30;4.32;;;;;;;;;;5053276;28;20029;-67
2022/11/13 13:51:45;;;;;;;5.60;4.47;;;;;;;;;;5053160;28;20031;-67
2022/11/13 13:54:17;;;;;;;5.40;4.68;;;;;;;;;;5053209;28;20028;-67
2022/11/13 13:56:43;;;;;;;5.07;4.10;;;;;;;;;;5019194;28;20086;-67
2022/11/13 13:59:22;;;;;;;5.50;4.57;;;;;;;;;;5052958;28;20029;-66
2022/11/13 14:01:57;;;;;;;5.82;4.95;;;;;;;;;;5053041;28;20021;-66
2022/11/13 14:04:25;;;;;;;5.00;4.43;;;;;;;;;;5052985;28;20017;-66
2022/11/13 14:06:57;;;;;;;5.68;4.28;;;;;;;;;;5053160;28;20025;-66
2022/11/13 14:09:28;;;;;;;5.80;4.75;;;;;;;;;;5035426;28;20041;-66
2022/11/13 14:12:05;;;;;;;7.07;4.57;;;;;;;;;;5050085;28;20041;-66
2022/11/13 14:14:32;;;;;;;5.45;4.85;;;;;;;;;;5035032;28;20033;-66
2022/11/13 14:17:00;;;;;;;4.40;3.90;;;;;;;;;;5052839;28;20033;-66
2022/11/13 14:19:27;;;;;;;6.10;4.50;;;;;;;;;;5052742;28;20040;-66
2022/11/13 14:21:58;;;;;;;5.25;4.70;;;;;;;;;;5052721;28;20029;-66
2022/11/13 14:24:32;;;;;;;5.25;4.75;;;;;;;;;;5052521;28;20057;-66
2022/11/13 14:27:01;;;;;;;5.70;4.47;;;;;;;;;;5052661;28;20033;-66
2022/11/13 14:29:46;;;;;;;5.65;4.50;;;;;;;;;;5052862;28;20086;-66
2022/11/13 14:32:21;;;;;;;5.07;3.92;;;;;;;;;;5052611;28;20049;-66
2022/11/13 14:34:48;;;;;;;5.32;4.50;;;;;;;;;;5052805;28;20098;-69
2022/11/13 14:37:29;;;;;;;5.00;4.45;;;;;;;;;;5052533;28;20187;-69
2022/11/13 14:39:59;;;;;;;6.68;4.57;;;;;;;;;;5052708;28;20024;-69
2022/11/13 14:42:35;;;;;;;5.10;4.60;;;;;;;;;;5052385;28;20032;-69
2022/11/13 14:45:15;;;;;;;5.13;4.35;;;;;;;;;;5052631;28;20060;-68
2022/11/13 14:47:43;;;;;;;5.50;4.70;;;;;;;;;;5052335;28;20083;-65
2022/11/13 14:50:27;;;;;;;4.72;4.28;;;;;;;;;;5035047;28;20049;-66
2022/11/13 14:53:07;;;;;;;5.15;4.40;;;;;;;;;;5051861;28;20362;-65
2022/11/13 14:55:57;;;;;;;6.22;4.97;;;;;;;;;;5052716;28;20178;-65
2022/11/13 14:58:30;;;;;;;5.80;4.80;;;;;;;;;;5049505;28;20051;-66
2022/11/13 15:00:57;;;;;;;5.40;4.70;;;;;;;;;;5052350;28;20261;-65
2022/11/13 15:03:23;;;;;;;5.05;4.55;;;;;;;;;;5052503;28;20116;-66